createdAt,value
2019-05-23T00:03:48.291Z,25.82
2019-05-23T00:13:51.990Z,28.20
2019-05-23T00:23:54.736Z,28.95
2019-05-23T00:33:56.865Z,27.13
2019-05-23T00:43:58.951Z,29.27
2019-05-23T00:54:00.981Z,27.57
2019-05-23T01:04:03.077Z,29.47
2019-05-23T01:14:05.037Z,33.17
2019-05-23T01:24:08.879Z,30.03
2019-05-23T01:34:11.269Z,30.27
2019-05-23T01:44:13.200Z,30.30
2019-05-23T01:54:15.283Z,30.67
2019-05-23T02:04:17.407Z,31.10
2019-05-23T02:14:19.379Z,30.50
2019-05-23T02:24:21.360Z,32.10
2019-05-23T02:34:23.359Z,30.23
2019-05-23T02:44:25.317Z,30.13
2019-05-23T02:54:29.252Z,30.13
2019-05-23T03:04:31.277Z,27.13
2019-05-23T03:14:33.465Z,27.60
2019-05-23T03:24:35.416Z,24.87
2019-05-23T03:34:37.570Z,21.80
2019-05-23T03:44:39.624Z,21.95
2019-05-23T03:54:41.612Z,21.93
2019-05-23T04:04:43.537Z,21.03
2019-05-23T04:14:45.516Z,21.10
2019-05-23T04:24:47.539Z,20.17
2019-05-23T04:34:49.761Z,19.83
2019-05-23T04:44:51.809Z,19.85
2019-05-23T04:54:53.813Z,22.77
2019-05-23T05:04:56.364Z,24.93
2019-05-23T05:25:00.198Z,25.52
2019-05-23T05:35:02.852Z,26.37
2019-05-23T05:45:06.280Z,27.45
2019-05-23T05:55:09.348Z,28.95
2019-05-23T06:05:11.504Z,30.80
2019-05-23T06:15:13.657Z,31.85
2019-05-23T06:25:15.655Z,32.30
2019-05-23T06:35:17.951Z,29.67
2019-05-23T06:45:20.163Z,29.55
2019-05-23T06:55:22.226Z,30.72
2019-05-23T07:05:29.044Z,30.17
2019-05-23T07:15:31.256Z,33.33
2019-05-23T07:25:33.379Z,31.10
2019-05-23T07:35:35.443Z,31.33
2019-05-23T07:45:39.750Z,29.80
2019-05-23T07:55:41.435Z,28.95
2019-05-23T08:05:44.480Z,26.93
2019-05-23T08:15:46.541Z,23.67
2019-05-23T08:25:48.754Z,23.55
2019-05-23T08:35:50.711Z,25.08
2019-05-23T08:45:53.289Z,22.22
2019-05-23T08:55:55.383Z,19.45
2019-05-23T09:05:57.709Z,19.73
2019-05-23T09:16:00.266Z,14.43
2019-05-23T09:26:02.224Z,16.55
2019-05-23T09:36:04.196Z,10.95
2019-05-23T09:56:07.674Z,12.75
2019-05-23T10:16:11.119Z,9.45
2019-05-23T10:26:13.211Z,8.55
2019-05-23T10:36:15.299Z,9.63
2019-05-23T10:46:17.416Z,9.13
2019-05-23T10:56:20.695Z,11.73
2019-05-23T11:06:23.096Z,9.45
2019-05-23T11:16:25.087Z,9.80
2019-05-23T11:26:27.181Z,9.38
2019-05-23T11:36:35.836Z,8.30
2019-05-23T11:46:33.382Z,7.03
2019-05-23T11:56:35.384Z,5.03
2019-05-23T12:06:53.448Z,4.05
2019-05-23T12:16:41.179Z,2.02
2019-05-23T12:26:43.256Z,2.15
2019-05-23T12:36:45.285Z,3.05
2019-05-23T12:46:47.261Z,2.30
2019-05-23T12:56:49.597Z,1.42
2019-05-23T13:06:51.683Z,1.50
2019-05-23T13:16:53.660Z,1.62
2019-05-23T13:26:56.125Z,1.20
2019-05-23T13:36:58.155Z,1.10
2019-05-23T13:47:00.380Z,1.70
2019-05-23T13:57:02.855Z,1.95
2019-05-23T14:07:04.980Z,1.30
2019-05-23T14:17:07.339Z,1.70
2019-05-23T14:27:09.481Z,2.20
2019-05-23T14:37:11.723Z,2.10
2019-05-23T14:47:14.180Z,1.32
2019-05-23T14:57:16.204Z,1.62
2019-05-23T15:07:18.259Z,1.45
2019-05-23T15:17:20.471Z,1.92
2019-05-23T15:27:22.714Z,1.72
2019-05-23T15:37:24.780Z,1.55
2019-05-23T15:47:26.840Z,1.27
2019-05-23T15:57:28.794Z,2.27
2019-05-23T16:07:31.072Z,1.65
2019-05-23T16:17:33.217Z,1.50
2019-05-23T16:27:35.477Z,1.65
2019-05-23T16:37:49.618Z,1.82
2019-05-23T16:47:51.727Z,6.37
2019-05-23T16:57:53.956Z,44.40
2019-05-23T17:07:55.955Z,6.25
2019-05-23T17:18:02.675Z,1.92
2019-05-23T17:28:02.324Z,5.67
2019-05-23T17:38:04.408Z,7.60
2019-05-23T17:48:06.573Z,3.30
2019-05-23T17:58:08.549Z,15.48
2019-05-23T18:08:10.782Z,4.95
2019-05-23T18:18:12.850Z,24.37
2019-05-23T18:28:15.003Z,7.67
2019-05-23T18:38:17.504Z,8.75
2019-05-23T18:48:19.919Z,25.30
2019-05-23T18:58:22.249Z,12.55
2019-05-23T19:08:24.315Z,13.62
2019-05-23T19:18:26.573Z,8.05
2019-05-23T19:28:28.839Z,5.35
2019-05-23T19:38:31.019Z,3.42
2019-05-23T19:48:33.378Z,3.72
2019-05-23T19:58:35.721Z,3.50
2019-05-23T20:08:37.685Z,2.80
2019-05-23T20:18:39.755Z,2.40
2019-05-23T20:38:43.621Z,2.42
2019-05-23T20:48:45.562Z,2.10
2019-05-23T20:58:50.192Z,2.45
2019-05-23T21:08:52.152Z,2.37
2019-05-23T21:18:55.304Z,2.00
2019-05-23T21:28:57.324Z,2.45
2019-05-23T21:38:59.357Z,2.35
2019-05-23T21:49:02.090Z,2.52
2019-05-23T21:59:06.427Z,3.20
2019-05-23T22:09:08.823Z,3.35
2019-05-23T22:19:10.741Z,2.70
2019-05-23T22:29:12.934Z,2.58
2019-05-23T22:39:15.043Z,2.98
2019-05-23T22:49:17.012Z,3.27
2019-05-23T22:59:18.952Z,4.97
2019-05-23T23:09:20.956Z,3.87
2019-05-23T23:19:22.937Z,4.15
2019-05-23T23:29:24.919Z,4.42
2019-05-23T23:39:27.213Z,3.05
2019-05-23T23:59:31.095Z,3.83
